Poseidon — DBKV — position and weather

sailwx.info

Track history (hours):
 
Tides and Currents Weather Stations Pressure Air Temp Water Temp Dewpoint Dewpoint Depression Visibility Wind Speed Wind Dir Waves Ship Positions

Oceanographic research ship Poseidon (Germany)

Detailed information on ship capabilities available from University of Delaware's Ocean Information Center.

Last reported at 2017-Dec-16 21:00 UTC. Time now 2017-Dec-16 22:26 UTC.
Position N 54°24' E 010°12'.

Length 60 m; beam 11.4 m; draft 4.1 m.

Type: Ship. MMSI: 211204360.

Wind from 280 at 6 knots

Barometer 1008.4 mb
Air temperature 1.3 ° C
Dewpoint -3.2 ° C
Water temperature 5.3 ° C

Date/timePositionNaut miles runAvg speedWind from/ knotsBaromVisibWave heightAir tempDewpointWater temp
2017-Dec-16 21:00N 54°24' E 010°12'0 0.0 280 / 61008.4 1.3-3.2 5.3
2017-Dec-16 20:00N 54°24' E 010°12'0 0.0 270 / 81007.7 1.6-2.7 5.6
2017-Dec-16 19:00N 54°24' E 010°12'0 0.0 250 / 81007.0 2.3-2.1 5.8
2017-Dec-16 18:00N 54°24' E 010°12'0 0.0 250 / 81006.4 2.6-2.0 6.0
2017-Dec-16 17:00N 54°24' E 010°12'0 0.0 250 / 81005.8 3.0-1.6 6.1
2017-Dec-16 16:00N 54°24' E 010°12'0 0.0 250 / 81005.3 3.3-1.5 6.1
2017-Dec-16 15:00N 54°24' E 010°12'0 0.0 250 / 81004.7 3.8-1.1 6.0
2017-Dec-16 14:00N 54°24' E 010°12'0 0.0 250 / 81004.1 4.3-1.1 5.7
2017-Dec-16 13:00N 54°24' E 010°12'0 0.0 260 / 81003.6 4.4-1.5 5.6
2017-Dec-16 12:00N 54°24' E 010°12'0 0.0 270 / 81003.3 3.7-1.8 5.3
2017-Dec-16 11:00N 54°24' E 010°12'0 0.0 250 / 61002.9 2.9-1.8 5.0
2017-Dec-16 10:00N 54°24' E 010°12'0 0.0 260 / 81002.8 2.1-2.1 4.8
2017-Dec-16 09:00N 54°24' E 010°12'0 0.0 260 / 81002.2 1.5-2.2 4.9
2017-Dec-16 08:00N 54°24' E 010°12'   260 / 81001.4 1.6-2.0 4.9
Track history (hours):
 
Tides and Currents Weather Stations Pressure Air Temp Water Temp Dewpoint Dewpoint Depression Visibility Wind Speed Wind Dir Waves Ship Positions

Oceanographic research ship Poseidon (Germany)

Detailed information on ship capabilities available from University of Delaware's Ocean Information Center.

Last reported at 2017-Dec-16 21:00 UTC. Time now 2017-Dec-16 22:26 UTC.
Position N 54°24' E 010°12'.

Length 60 m; beam 11.4 m; draft 4.1 m.

Type: Ship. MMSI: 211204360.

Wind from 280 at 6 knots

Barometer 1008.4 mb
Air temperature 1.3 ° C
Dewpoint -3.2 ° C
Water temperature 5.3 ° C

Date/timePositionNaut miles runAvg speedWind from/ knotsBaromVisibWave heightAir tempDewpointWater temp
2017-Dec-16 21:00N 54°24' E 010°12'0 0.0 280 / 61008.4 1.3-3.2 5.3
2017-Dec-16 20:00N 54°24' E 010°12'0 0.0 270 / 81007.7 1.6-2.7 5.6
2017-Dec-16 19:00N 54°24' E 010°12'0 0.0 250 / 81007.0 2.3-2.1 5.8
2017-Dec-16 18:00N 54°24' E 010°12'0 0.0 250 / 81006.4 2.6-2.0 6.0
2017-Dec-16 17:00N 54°24' E 010°12'0 0.0 250 / 81005.8 3.0-1.6 6.1
2017-Dec-16 16:00N 54°24' E 010°12'0 0.0 250 / 81005.3 3.3-1.5 6.1
2017-Dec-16 15:00N 54°24' E 010°12'0 0.0 250 / 81004.7 3.8-1.1 6.0
2017-Dec-16 14:00N 54°24' E 010°12'0 0.0 250 / 81004.1 4.3-1.1 5.7
2017-Dec-16 13:00N 54°24' E 010°12'0 0.0 260 / 81003.6 4.4-1.5 5.6
2017-Dec-16 12:00N 54°24' E 010°12'0 0.0 270 / 81003.3 3.7-1.8 5.3
2017-Dec-16 11:00N 54°24' E 010°12'0 0.0 250 / 61002.9 2.9-1.8 5.0
2017-Dec-16 10:00N 54°24' E 010°12'0 0.0 260 / 81002.8 2.1-2.1 4.8
2017-Dec-16 09:00N 54°24' E 010°12'0 0.0 260 / 81002.2 1.5-2.2 4.9
2017-Dec-16 08:00N 54°24' E 010°12'   260 / 81001.4 1.6-2.0 4.9

Dump ship's entire track history